Time;durP1;ratioP1;P1;durP2;ratioP2;P2;SDS_P1;SDS_P2;PMS_P1;PMS_P2;Temp;Humidity;BMP_temperature;BMP_pressure;BME280_temperature;BME280_humidity;BME280_pressure;Samples;Min_cycle;Max_cycle;Signal;HPM_P1;HPM_P2
2024/03/03 00:02:14;;;;;;;4.70;4.30;;;12.10;99.90;;;12.36;82.66;99629.91;4898603;29;20135;-64
2024/03/03 00:04:43;;;;;;;4.60;4.20;;;12.20;99.90;;;12.38;83.02;99639.56;4898500;29;20052;-64
2024/03/03 00:07:15;;;;;;;4.50;4.10;;;12.20;99.90;;;12.40;82.66;99645.69;4896762;29;20058;-64
2024/03/03 00:09:45;;;;;;;4.80;4.40;;;12.30;99.90;;;12.39;82.72;99643.06;4896867;29;20053;-64
2024/03/03 00:12:14;;;;;;;5.45;4.40;;;12.30;99.90;;;12.48;82.76;99645.44;4897081;29;20394;-65
2024/03/03 00:14:42;;;;;;;4.78;4.40;;;12.30;99.90;;;12.65;82.51;99644.00;4896657;29;20829;-65
2024/03/03 00:17:12;;;;;;;5.85;4.60;;;12.50;99.90;;;12.82;82.46;99642.53;4896685;29;20044;-64
2024/03/03 00:19:41;;;;;;;5.23;4.20;;;12.60;99.90;;;13.00;82.07;99645.47;4896887;29;20052;-65
2024/03/03 00:22:10;;;;;;;4.75;4.38;;;12.80;99.90;;;13.07;81.18;99638.19;4896595;29;20398;-65
2024/03/03 00:24:38;;;;;;;5.13;4.72;;;12.90;99.90;;;12.98;81.22;99649.09;4895172;29;20056;-67
2024/03/03 00:27:08;;;;;;;4.88;4.47;;;12.80;99.90;;;12.80;81.04;99647.91;4896430;29;20044;-64
2024/03/03 00:29:36;;;;;;;4.80;4.40;;;12.70;99.90;;;12.87;81.32;99652.13;4896449;29;20045;-65
2024/03/03 00:32:05;;;;;;;5.15;4.40;;;12.70;99.90;;;12.87;80.62;99644.16;4896291;29;20053;-64
2024/03/03 00:34:35;;;;;;;5.07;4.60;;;12.70;99.90;;;12.78;81.26;99649.75;4896390;29;20040;-65
2024/03/03 00:37:03;;;;;;;6.20;4.77;;;12.60;99.90;;;12.68;81.43;99649.19;4896509;29;20045;-65
2024/03/03 00:39:32;;;;;;;4.80;4.30;;;12.50;99.90;;;12.69;82.03;99650.94;4896353;29;20446;-65
2024/03/03 00:42:00;;;;;;;5.03;4.53;;;12.50;99.90;;;12.71;82.58;99648.22;4896306;29;20765;-65
2024/03/03 00:44:33;;;;;;;4.55;4.20;;;12.50;99.90;;;12.81;82.01;99644.38;4896198;29;20040;-64
2024/03/03 00:47:03;;;;;;;4.95;4.47;;;12.60;99.90;;;12.67;82.57;99641.28;4895241;29;20049;-66
2024/03/03 00:49:31;;;;;;;5.13;4.60;;;12.50;99.90;;;12.84;82.23;99644.25;4896066;29;20537;-65
2024/03/03 00:52:01;;;;;;;5.30;4.82;;;12.60;99.90;;;12.81;82.34;99641.72;4896196;29;20036;-66
2024/03/03 00:54:29;;;;;;;4.82;4.30;;;12.60;99.90;;;12.87;82.38;99637.97;4910501;29;20524;-65
2024/03/03 00:56:58;;;;;;;5.20;4.60;;;12.70;99.90;;;12.78;82.40;99644.44;4910642;29;20055;-65
2024/03/03 00:59:26;;;;;;;4.93;4.53;;;12.60;99.90;;;12.82;82.43;99640.78;4896425;29;20406;-67
2024/03/03 01:01:56;;;;;;;5.30;4.80;;;12.60;99.90;;;12.94;82.34;99645.69;4895973;29;20088;-65
2024/03/03 01:04:24;;;;;;;5.57;4.80;;;12.70;99.90;;;13.05;82.00;99642.69;4894230;29;20067;-65
2024/03/03 01:06:53;;;;;;;5.30;4.88;;;12.80;99.90;;;13.19;81.97;99645.72;4910443;29;20048;-65
2024/03/03 01:09:21;;;;;;;6.47;5.85;;;12.90;99.90;;;13.26;82.04;99652.56;4895428;29;20573;-67
2024/03/03 01:11:53;;;;;;;7.20;6.60;;;13.00;99.90;;;13.32;82.17;99650.56;4895903;29;20044;-65
2024/03/03 01:14:23;;;;;;;8.23;7.43;;;13.00;99.90;;;13.05;83.90;99654.16;4910428;29;20553;-65
2024/03/03 01:16:51;;;;;;;13.02;10.52;;;12.90;99.90;;;12.60;87.88;99671.59;4895863;29;20048;-65
2024/03/03 01:19:21;;;;;;;12.73;11.40;;;12.40;99.90;;;12.34;89.94;99661.78;4895842;29;20123;-64
2024/03/03 01:21:50;;;;;;;12.57;11.15;;;12.20;99.90;;;12.29;91.49;99655.75;4895839;29;20048;-64
2024/03/03 01:24:18;;;;;;;13.98;12.52;;;12.00;99.90;;;12.19;92.51;99659.63;4895780;29;20449;-64
2024/03/03 01:26:46;;;;;;;15.25;13.65;;;11.90;99.90;;;12.08;93.59;99660.84;4895802;29;20107;-65
2024/03/03 01:29:15;;;;;;;15.82;14.15;;;11.70;99.90;;;11.98;94.29;99652.28;4895898;29;20104;-65
2024/03/03 01:31:44;;;;;;;18.42;15.25;;;11.60;99.90;;;11.70;95.49;99638.13;4894394;29;20078;-65
2024/03/03 01:34:13;;;;;;;20.05;15.60;;;11.50;99.90;;;11.41;97.53;99627.44;4895928;29;20037;-65
2024/03/03 01:36:43;;;;;;;19.02;15.57;;;11.20;99.90;;;11.48;98.17;99643.09;4910110;29;20041;-65
2024/03/03 01:39:11;;;;;;;15.73;14.03;;;11.20;99.90;;;11.53;98.24;99646.50;4894464;29;20528;-66
2024/03/03 01:41:45;;;;;;;17.52;14.43;;;11.20;99.90;;;11.55;98.53;99652.63;4909999;29;20052;-65
2024/03/03 01:44:15;;;;;;;15.15;13.55;;;11.20;99.90;;;11.34;99.23;99650.56;4910182;29;20048;-65
2024/03/03 01:46:44;;;;;;;18.52;14.60;;;11.00;99.90;;;11.21;100.00;99648.28;4910036;29;20040;-66
2024/03/03 01:49:16;;;;;;;15.93;13.90;;;10.90;99.90;;;11.20;100.00;99642.13;4894390;29;20075;-64
2024/03/03 01:51:47;;;;;;;16.05;13.57;;;10.90;99.90;;;10.99;100.00;99658.56;4895606;29;20466;-66
2024/03/03 01:54:18;;;;;;;16.48;12.70;;;10.80;99.90;;;11.01;100.00;99650.59;4895757;29;20040;-65
2024/03/03 01:56:48;;;;;;;19.92;13.30;;;10.70;99.90;;;11.11;100.00;99655.59;4895625;29;20069;-64
2024/03/03 01:59:17;;;;;;;13.63;12.15;;;10.80;99.90;;;11.13;100.00;99645.84;4910050;29;20045;-65
2024/03/03 02:01:46;;;;;;;15.75;12.68;;;10.80;99.90;;;11.19;100.00;99661.56;4894256;29;20135;-65
2024/03/03 02:04:16;;;;;;;14.77;12.25;;;10.80;99.90;;;11.22;100.00;99653.56;4895695;29;20056;-64
2024/03/03 02:06:47;;;;;;;16.50;11.98;;;10.80;99.90;;;11.14;100.00;99652.00;4909961;29;20040;-64
2024/03/03 02:09:16;;;;;;;13.45;11.77;;;10.80;99.90;;;10.96;100.00;99648.06;4895368;29;20041;-64
2024/03/03 02:11:44;;;;;;;13.45;10.85;;;10.70;99.90;;;11.03;100.00;99662.00;4894295;29;20087;-65
2024/03/03 02:14:13;;;;;;;13.98;11.55;;;10.70;99.90;;;11.25;100.00;99655.22;4910033;29;20044;-65
2024/03/03 02:16:42;;;;;;;13.30;11.48;;;10.80;99.90;;;10.94;100.00;99636.63;4910037;29;20061;-66
2024/03/03 02:19:11;;;;;;;13.20;11.48;;;10.80;99.90;;;11.11;100.00;99658.22;4909778;29;20049;-68
2024/03/03 02:21:41;;;;;;;12.73;10.90;;;10.70;99.90;;;11.38;100.00;99657.50;4897028;29;20040;-65
2024/03/03 02:24:09;;;;;;;12.70;10.90;;;11.00;99.90;;;11.52;100.00;99644.75;4898781;29;20048;-65
2024/03/03 02:26:38;;;;;;;12.48;11.18;;;11.20;99.90;;;11.71;100.00;99650.47;4898563;29;20051;-65
2024/03/03 02:29:08;;;;;;;12.70;11.13;;;11.30;99.90;;;11.76;99.89;99646.75;4897324;29;20147;-67
2024/03/03 02:31:36;;;;;;;14.85;10.82;;;11.50;99.90;;;11.78;99.55;99642.28;4898566;29;20076;-66
2024/03/03 02:34:05;;;;;;;12.75;10.55;;;11.60;99.90;;;11.92;99.24;99648.97;4898501;29;20104;-65
2024/03/03 02:36:33;;;;;;;15.35;11.80;;;11.60;99.90;;;11.86;98.87;99635.88;4898477;29;20028;-65
2024/03/03 02:39:03;;;;;;;12.02;10.77;;;11.60;99.90;;;11.87;98.32;99637.59;4897216;29;20037;-65
2024/03/03 02:41:35;;;;;;;12.52;10.57;;;11.60;99.90;;;11.96;97.71;99647.97;4898637;29;20394;-65
2024/03/03 02:44:03;;;;;;;13.27;10.70;;;11.70;99.90;;;12.03;97.41;99653.03;4897267;29;20568;-68
2024/03/03 02:46:31;;;;;;;12.85;10.32;;;11.70;99.90;;;12.01;96.87;99673.41;4898256;29;20068;-65
2024/03/03 02:49:00;;;;;;;11.35;9.90;;;11.70;99.90;;;12.01;97.05;99657.50;4897089;29;20092;-64
2024/03/03 02:51:28;;;;;;;12.18;9.85;;;11.70;99.90;;;11.91;96.67;99663.09;4912662;29;20096;-65
2024/03/03 02:53:56;;;;;;;12.48;9.80;;;11.60;99.90;;;11.90;97.51;99661.38;4898221;29;20060;-64
2024/03/03 02:56:26;;;;;;;11.60;10.38;;;11.50;99.90;;;11.88;97.25;99655.25;4898138;29;20037;-62
2024/03/03 02:58:54;;;;;;;12.38;10.98;;;11.60;99.90;;;12.04;96.83;99653.91;4897039;29;20401;-62
2024/03/03 03:01:23;;;;;;;12.82;10.68;;;11.70;99.90;;;12.10;96.57;99664.31;4912446;29;20052;-62
2024/03/03 03:03:51;;;;;;;11.60;10.15;;;11.70;99.90;;;12.09;96.33;99654.63;4912287;29;20486;-63
2024/03/03 03:06:20;;;;;;;11.95;10.52;;;11.70;99.90;;;12.09;96.13;99668.75;4897851;29;20032;-63
2024/03/03 03:08:48;;;;;;;13.73;11.00;;;11.70;99.90;;;12.10;96.07;99667.81;4912433;29;20048;-63
2024/03/03 03:11:16;;;;;;;13.73;11.05;;;11.70;99.90;;;11.83;96.83;99658.03;4896561;29;20048;-63
2024/03/03 03:13:47;;;;;;;12.75;11.00;;;11.50;99.90;;;12.02;96.94;99661.88;4896808;29;20083;-63
2024/03/03 03:16:15;;;;;;;13.63;10.73;;;11.60;99.90;;;12.08;96.00;99666.16;4896483;29;20120;-63
2024/03/03 03:18:44;;;;;;;12.70;10.52;;;11.70;99.90;;;12.05;95.87;99663.56;4897775;29;20104;-63
2024/03/03 03:21:14;;;;;;;13.68;11.63;;;11.70;99.90;;;12.07;95.90;99659.09;4896339;29;20048;-63
2024/03/03 03:23:42;;;;;;;14.43;11.48;;;11.70;99.90;;;12.07;95.57;99665.28;4897640;29;20813;-63
2024/03/03 03:26:11;;;;;;;12.88;11.10;;;11.70;99.90;;;12.05;95.25;99667.09;4897687;29;20386;-63
2024/03/03 03:28:41;;;;;;;14.23;12.73;;;11.70;99.90;;;12.06;95.15;99667.97;4897441;29;20040;-63
2024/03/03 03:31:11;;;;;;;14.00;12.15;;;11.70;99.90;;;12.07;95.01;99680.31;4897749;29;20056;-62
2024/03/03 03:33:39;;;;;;;14.15;12.38;;;11.70;99.90;;;12.14;94.51;99685.38;4895354;29;20053;-63
2024/03/03 03:36:10;;;;;;;18.13;14.20;;;11.70;99.90;;;12.13;93.90;99678.34;4897382;29;20120;-62
2024/03/03 03:38:38;;;;;;;17.67;14.15;;;11.70;99.90;;;12.09;94.02;99667.88;4897412;29;20053;-64
2024/03/03 03:41:07;;;;;;;17.67;14.65;;;11.80;99.90;;;12.13;93.59;99674.81;4897303;29;20048;-63
2024/03/03 03:43:35;;;;;;;21.08;14.75;;;11.80;99.90;;;12.13;93.40;99673.06;4897345;29;20112;-64
2024/03/03 03:46:03;;;;;;;17.48;14.88;;;11.70;99.90;;;12.07;93.73;99678.53;4897199;29;20049;-63
2024/03/03 03:48:33;;;;;;;17.85;15.23;;;11.70;99.90;;;12.08;93.83;99672.28;4897107;29;20088;-63
2024/03/03 03:51:02;;;;;;;19.05;15.45;;;11.70;99.90;;;12.04;94.03;99675.09;4897159;29;20091;-62
2024/03/03 03:53:31;;;;;;;18.48;14.82;;;11.60;99.90;;;12.08;94.04;99682.06;4896903;29;20501;-64
2024/03/03 03:55:59;;;;;;;16.50;14.23;;;11.70;99.90;;;12.14;93.68;99673.91;4895826;29;20502;-64
2024/03/03 03:58:28;;;;;;;18.38;14.77;;;11.70;99.90;;;12.19;93.68;99685.25;4896834;29;20075;-64
2024/03/03 04:00:56;;;;;;;16.33;14.18;;;11.80;99.90;;;12.22;93.07;99683.38;4895856;29;20458;-62
2024/03/03 04:03:25;;;;;;;17.70;14.55;;;11.80;99.90;;;12.26;93.15;99692.09;4896904;29;20044;-67
2024/03/03 04:05:54;;;;;;;20.30;15.50;;;11.90;99.90;;;12.23;93.12;99693.03;4896827;29;20044;-64
2024/03/03 04:08:23;;;;;;;18.73;15.50;;;11.90;99.90;;;12.24;92.96;99689.50;4911389;29;20044;-63
2024/03/03 04:10:51;;;;;;;18.65;15.43;;;11.90;99.90;;;12.12;93.44;99694.28;4896926;29;20133;-64
2024/03/03 04:13:19;;;;;;;17.92;14.40;;;11.80;99.90;;;12.00;94.62;99694.66;4896688;29;20108;-62
2024/03/03 04:15:48;;;;;;;17.70;13.52;;;11.60;99.90;;;11.79;95.29;99682.88;4896652;29;20052;-63
2024/03/03 04:18:16;;;;;;;14.23;12.20;;;11.50;99.90;;;11.77;96.26;99688.22;4896625;29;20045;-62
2024/03/03 04:20:45;;;;;;;14.85;11.35;;;11.40;99.90;;;11.74;96.60;99680.38;4896474;29;20045;-62
2024/03/03 04:23:17;;;;;;;13.18;10.43;;;11.30;99.90;;;11.66;97.11;99679.72;4896561;29;20565;-63
2024/03/03 04:25:45;;;;;;;13.10;10.43;;;11.30;99.90;;;11.60;97.54;99695.75;4896596;29;20044;-62
2024/03/03 04:28:14;;;;;;;10.57;9.48;;;11.20;99.90;;;11.55;98.09;99697.66;4896380;29;20033;-62
2024/03/03 04:30:42;;;;;;;12.07;9.60;;;11.20;99.90;;;11.61;98.03;99697.47;4896627;29;20048;-63
2024/03/03 04:33:12;;;;;;;9.52;8.48;;;11.20;99.90;;;11.67;98.08;99713.22;4896267;29;20044;-63
2024/03/03 04:35:42;;;;;;;13.77;9.57;;;11.20;99.90;;;11.62;98.11;99720.41;4896384;29;20051;-62
2024/03/03 04:38:11;;;;;;;11.32;8.90;;;11.20;99.90;;;11.65;98.06;99722.09;4896647;29;20127;-62
2024/03/03 04:40:43;;;;;;;10.25;9.20;;;11.30;99.90;;;11.70;98.09;99723.75;4896234;29;20128;-64
2024/03/03 04:43:14;;;;;;;11.02;9.15;;;11.30;99.90;;;11.70;97.77;99733.47;4896301;29;20056;-62
2024/03/03 04:45:43;;;;;;;10.73;8.77;;;11.30;99.90;;;11.69;97.85;99735.25;4896186;29;20048;-65
2024/03/03 04:48:11;;;;;;;11.00;9.20;;;11.30;99.90;;;11.68;97.94;99725.56;4910828;29;20458;-63
2024/03/03 04:50:40;;;;;;;10.18;8.82;;;11.30;99.90;;;11.68;97.79;99724.69;4896097;29;20049;-62
2024/03/03 04:53:08;;;;;;;11.40;8.88;;;11.20;99.90;;;11.54;98.19;99698.56;4896233;29;20785;-63
2024/03/03 04:55:36;;;;;;;9.65;8.40;;;11.20;99.90;;;11.64;98.40;99708.00;4910298;29;20111;-62
2024/03/03 04:58:06;;;;;;;10.38;9.15;;;11.20;99.90;;;11.75;97.91;99713.88;4896073;29;20044;-64
2024/03/03 05:00:34;;;;;;;11.98;8.63;;;11.40;99.90;;;11.83;97.73;99718.13;4910444;29;20087;-62
2024/03/03 05:03:03;;;;;;;12.63;8.27;;;11.40;99.90;;;11.76;97.52;99718.28;4895969;29;20100;-62
2024/03/03 05:05:31;;;;;;;9.60;8.70;;;11.40;99.90;;;11.78;97.72;99723.53;4895917;29;20076;-62
2024/03/03 05:08:00;;;;;;;10.63;8.77;;;11.40;99.90;;;11.77;97.65;99722.66;4895779;29;20123;-64
2024/03/03 05:10:28;;;;;;;11.00;9.07;;;11.40;99.90;;;11.87;97.74;99730.34;4895980;29;20112;-63
2024/03/03 05:12:57;;;;;;;10.98;8.88;;;11.40;99.90;;;11.86;97.31;99732.16;4895615;29;20613;-62
2024/03/03 05:15:26;;;;;;;9.68;8.60;;;11.50;99.90;;;11.87;97.33;99746.25;4895853;29;20486;-63
2024/03/03 05:17:55;;;;;;;10.63;8.55;;;11.50;99.90;;;11.91;97.32;99754.06;4896107;29;20048;-64
2024/03/03 05:20:24;;;;;;;9.98;8.70;;;11.50;99.90;;;11.92;96.86;99752.28;4895804;29;20055;-62
2024/03/03 05:22:55;;;;;;;10.25;8.73;;;11.50;99.90;;;11.91;96.98;99747.88;4895824;29;20113;-64
2024/03/03 05:25:23;;;;;;;10.32;9.20;;;11.60;99.90;;;11.86;96.40;99723.31;4910249;29;20142;-63
2024/03/03 05:27:53;;;;;;;10.05;9.00;;;11.60;99.90;;;12.05;96.00;99756.34;4895700;29;20037;-62
2024/03/03 05:30:26;;;;;;;10.13;9.10;;;11.70;99.90;;;12.09;95.54;99766.81;4896087;29;20048;-63
2024/03/03 05:32:54;;;;;;;12.30;9.30;;;11.70;99.90;;;12.10;95.25;99765.03;4895946;29;20051;-63
2024/03/03 05:35:23;;;;;;;10.82;9.15;;;11.70;99.90;;;11.97;95.78;99758.31;4895730;29;20371;-65
2024/03/03 05:37:51;;;;;;;12.30;9.35;;;11.60;99.90;;;11.95;95.80;99773.41;4895825;29;20060;-64
2024/03/03 05:40:20;;;;;;;11.93;9.75;;;11.60;99.90;;;11.94;96.28;99769.91;4895788;29;20119;-62
2024/03/03 05:42:48;;;;;;;12.05;10.10;;;11.50;99.90;;;11.96;96.40;99772.50;4895584;29;20127;-63
2024/03/03 05:45:17;;;;;;;12.60;9.50;;;11.50;99.90;;;11.87;96.80;99770.09;4895613;29;20051;-63
2024/03/03 05:47:47;;;;;;;10.52;9.20;;;11.50;99.90;;;11.88;96.83;99766.53;4895558;29;20097;-62
2024/03/03 05:50:16;;;;;;;10.10;8.87;;;11.50;99.90;;;11.89;96.47;99768.25;4895659;29;20402;-62
2024/03/03 05:52:44;;;;;;;10.00;9.02;;;11.50;99.90;;;11.93;96.49;99785.81;4895509;29;20044;-63
2024/03/03 05:55:13;;;;;;;10.10;9.10;;;11.50;99.90;;;11.80;96.69;99777.34;4895520;29;20091;-64
2024/03/03 05:57:41;;;;;;;9.40;8.50;;;11.50;99.90;;;11.90;96.75;99792.09;4898843;29;20046;-63
2024/03/03 06:00:12;;;;;;;10.13;9.05;;;11.50;99.90;;;11.91;96.59;99793.81;4913736;29;20048;-64
2024/03/03 06:02:40;;;;;;;;;;;11.50;99.90;;;11.88;96.48;99791.25;4899508;29;20048;-65
2024/03/03 06:05:10;;;;;;;9.90;9.00;;;11.50;99.90;;;11.88;96.90;99790.38;4898916;29;20006;-62
2024/03/03 06:07:38;;;;;;;10.65;9.55;;;11.50;99.90;;;11.91;97.20;99798.22;4898877;29;20049;-63
2024/03/03 06:10:08;;;;;;;10.93;9.43;;;11.50;99.90;;;11.93;97.28;99793.75;4898934;29;20096;-64
2024/03/03 06:12:36;;;;;;;12.00;9.43;;;11.50;99.90;;;11.90;97.15;99800.03;4898930;29;20517;-63
2024/03/03 06:15:06;;;;;;;10.43;9.25;;;11.50;99.90;;;11.89;97.50;99797.41;4899041;29;20079;-64
2024/03/03 06:17:35;;;;;;;10.00;8.98;;;11.50;99.90;;;11.99;97.19;99804.19;4898732;29;20131;-62
2024/03/03 06:20:05;;;;;;;11.00;9.43;;;11.50;99.90;;;11.95;97.01;99810.50;4898708;29;20049;-63
2024/03/03 06:22:35;;;;;;;9.68;8.68;;;11.50;99.90;;;12.00;97.17;99805.97;4898748;29;20119;-63
2024/03/03 06:25:04;;;;;;;12.25;9.13;;;11.50;99.90;;;11.99;97.29;99809.50;4898835;29;20040;-62
2024/03/03 06:27:33;;;;;;;10.98;9.00;;;11.50;99.90;;;11.95;97.12;99816.66;4898630;29;20048;-63
2024/03/03 06:30:03;;;;;;;11.23;8.68;;;11.50;99.90;;;12.01;97.22;99818.28;4898517;29;20047;-62
2024/03/03 06:32:32;;;;;;;14.43;9.45;;;11.60;99.90;;;11.90;97.39;99820.34;4898631;29;20119;-64
2024/03/03 06:35:01;;;;;;;9.95;8.95;;;11.50;99.90;;;11.81;98.32;99828.56;4898393;29;20044;-63
2024/03/03 06:37:31;;;;;;;12.68;9.60;;;11.40;99.90;;;11.82;98.50;99835.59;4898386;29;20037;-62
2024/03/03 06:40:01;;;;;;;10.53;9.43;;;11.40;99.90;;;11.78;98.45;99842.75;4898522;29;20413;-62
2024/03/03 06:42:29;;;;;;;9.90;8.85;;;11.40;99.90;;;11.70;98.92;99845.59;4898837;29;20388;-63
2024/03/03 06:44:58;;;;;;;13.10;9.93;;;11.30;99.90;;;11.71;98.99;99838.53;4898347;29;20055;-63
2024/03/03 06:47:27;;;;;;;11.23;9.98;;;11.30;99.90;;;11.81;99.47;99837.34;4898272;29;20076;-64
2024/03/03 06:49:56;;;;;;;14.57;9.77;;;11.40;99.90;;;11.96;98.81;99830.81;4898191;29;20123;-63
2024/03/03 06:52:24;;;;;;;13.50;10.55;;;11.60;99.90;;;11.89;98.25;99850.41;4912712;29;20135;-66
2024/03/03 06:54:53;;;;;;;11.90;9.90;;;11.60;99.90;;;11.79;99.29;99855.94;4898296;29;20119;-66
2024/03/03 06:57:23;;;;;;;13.88;10.05;;;11.40;99.90;;;11.81;99.38;99857.69;4896791;29;20084;-66
2024/03/03 06:59:52;;;;;;;11.83;10.00;;;11.40;99.90;;;11.94;99.47;99865.28;4898186;29;20048;-66
2024/03/03 07:02:21;;;;;;;12.93;10.52;;;11.50;99.90;;;11.89;98.90;99867.19;4898131;29;20319;-68
2024/03/03 07:04:49;;;;;;;12.35;10.50;;;11.50;99.90;;;12.02;99.36;99873.88;4897948;29;20134;-66
2024/03/03 07:07:18;;;;;;;15.82;10.90;;;11.60;99.90;;;11.90;98.97;99866.28;4897201;29;20049;-66
2024/03/03 07:09:46;;;;;;;15.32;11.10;;;11.60;99.90;;;12.00;99.25;99870.41;4896550;29;20048;-69
2024/03/03 07:12:16;;;;;;;16.48;10.65;;;11.60;99.90;;;11.92;98.97;99874.19;4898168;29;20053;-66
2024/03/03 07:14:46;;;;;;;13.90;10.82;;;11.60;99.90;;;11.97;99.40;99874.91;4897922;29;20040;-66
2024/03/03 07:17:15;;;;;;;15.73;11.03;;;11.60;99.90;;;11.93;99.65;99874.13;4898863;29;20041;-64
2024/03/03 07:19:43;;;;;;;13.20;10.65;;;11.60;99.90;;;11.90;99.60;99879.53;4899480;29;20080;-65
2024/03/03 07:22:11;;;;;;;17.98;10.95;;;11.60;99.90;;;11.84;99.92;99865.56;4897657;29;20111;-66
2024/03/03 07:24:40;;;;;;;12.05;10.60;;;11.50;99.90;;;12.01;100.00;99871.28;4897784;29;20132;-66
2024/03/03 07:27:08;;;;;;;14.02;11.23;;;11.60;99.90;;;12.01;99.57;99868.63;4897559;29;20060;-64
2024/03/03 07:29:38;;;;;;;14.85;11.32;;;11.60;99.90;;;12.02;99.59;99865.09;4897505;29;20119;-64
2024/03/03 07:32:11;;;;;;;16.98;10.38;;;11.60;99.90;;;12.03;99.68;99869.47;4897494;29;20047;-66
2024/03/03 07:34:39;;;;;;;16.45;11.65;;;11.60;99.90;;;12.08;99.64;99864.94;4912010;29;20063;-65
2024/03/03 07:37:08;;;;;;;14.02;10.88;;;11.70;99.90;;;12.10;99.30;99863.13;4897774;29;20064;-66
2024/03/03 07:39:37;;;;;;;13.82;11.07;;;11.70;99.90;;;12.12;99.19;99872.75;4897290;29;20048;-65
2024/03/03 07:42:05;;;;;;;14.07;10.75;;;11.70;99.90;;;12.16;99.26;99866.44;4897512;29;20059;-65
2024/03/03 07:44:34;;;;;;;16.30;11.23;;;11.70;99.90;;;12.16;99.09;99868.22;4897425;29;20474;-66
2024/03/03 07:47:03;;;;;;;15.68;11.35;;;11.70;99.90;;;12.25;99.37;99870.66;4897529;29;20473;-65
2024/03/03 07:49:33;;;;;;;15.02;10.90;;;11.80;99.90;;;12.36;99.02;99872.09;4897100;29;20044;-65
2024/03/03 07:52:02;;;;;;;13.40;11.38;;;11.90;99.90;;;12.44;98.42;99879.84;4897364;29;20055;-64
2024/03/03 07:54:30;;;;;;;12.85;11.15;;;12.10;99.90;;;12.50;98.26;99888.47;4895798;29;20048;-65
2024/03/03 07:56:58;;;;;;;16.15;11.52;;;12.10;99.90;;;11.92;98.11;99777.03;4897145;29;20051;-66
2024/03/03 07:59:34;;;;;;;15.00;11.73;;;12.20;99.90;;;12.56;97.92;99887.44;4897182;29;20124;-65
2024/03/03 08:02:03;;;;;;;11.70;10.48;;;12.20;99.90;;;12.61;98.06;99883.75;4896941;29;20064;-64
2024/03/03 08:04:33;;;;;;;16.17;11.70;;;12.30;99.90;;;12.68;97.86;99895.03;4911244;29;20067;-64
2024/03/03 08:07:01;;;;;;;13.70;11.55;;;12.30;99.90;;;12.70;97.67;99895.88;4897525;29;20610;-64
2024/03/03 08:09:30;;;;;;;15.15;12.18;;;12.40;99.90;;;12.15;97.40;99802.88;4896560;29;20054;-65
2024/03/03 08:11:58;;;;;;;15.30;11.68;;;12.40;99.90;;;12.75;97.37;99903.69;4895326;29;20557;-65
2024/03/03 08:14:26;;;;;;;14.70;12.50;;;12.40;99.90;;;12.73;97.01;99917.03;4896588;29;20048;-63
2024/03/03 08:16:55;;;;;;;16.35;12.25;;;12.40;99.90;;;12.55;97.49;99917.53;4896739;29;20044;-62
2024/03/03 08:19:23;;;;;;;17.45;13.05;;;12.20;99.90;;;12.32;98.63;99933.19;4910511;29;20079;-61
2024/03/03 08:21:53;;;;;;;17.20;12.57;;;12.00;99.90;;;12.48;98.90;99932.75;4896637;29;20058;-62
2024/03/03 08:24:21;;;;;;;15.65;12.75;;;12.10;99.90;;;12.54;98.88;99935.22;4896603;29;20044;-64
2024/03/03 08:26:50;;;;;;;16.13;12.75;;;12.10;99.90;;;12.65;98.42;99942.88;4896657;29;20115;-64
2024/03/03 08:29:18;;;;;;;16.00;12.50;;;12.20;99.90;;;12.75;98.00;99931.13;4896271;29;20072;-65
2024/03/03 08:31:47;;;;;;;15.15;12.48;;;12.40;99.90;;;12.78;98.08;99927.47;4896568;29;20398;-65
2024/03/03 08:34:15;;;;;;;14.88;12.35;;;12.40;99.90;;;12.83;98.35;99931.78;4896350;29;20049;-64
2024/03/03 08:36:43;;;;;;;15.10;12.85;;;12.50;99.90;;;12.89;98.25;99939.53;4910985;29;20053;-65
2024/03/03 08:39:13;;;;;;;16.42;12.90;;;12.50;99.90;;;12.89;98.12;99931.56;4896441;29;20088;-64
2024/03/03 08:41:45;;;;;;;15.63;12.80;;;12.50;99.90;;;12.87;97.62;99906.00;4896329;29;20076;-64
2024/03/03 08:44:14;;;;;;;17.10;13.90;;;12.60;99.90;;;13.01;97.63;99920.59;4896376;29;20139;-66
2024/03/03 08:46:42;;;;;;;16.83;13.77;;;12.60;99.90;;;13.08;97.35;99924.88;4896171;29;20119;-65
2024/03/03 08:49:11;;;;;;;16.92;14.52;;;12.70;99.90;;;13.15;96.84;99921.09;4896091;29;20047;-65
2024/03/03 08:51:43;;;;;;;15.10;12.90;;;12.80;99.90;;;13.12;96.42;99917.69;4896090;29;20144;-66
2024/03/03 08:54:13;;;;;;;15.35;13.55;;;12.90;99.90;;;13.35;96.00;99936.44;4896229;29;20143;-64
2024/03/03 08:56:44;;;;;;;17.63;14.50;;;13.00;99.90;;;13.49;95.89;99936.88;4895972;29;20048;-64
2024/03/03 08:59:13;;;;;;;16.10;13.48;;;13.10;99.90;;;13.58;95.27;99916.22;4895774;29;20289;-66
2024/03/03 09:01:41;;;;;;;18.50;14.27;;;13.20;99.90;;;13.61;95.36;99922.34;4895965;29;20166;-63
2024/03/03 09:04:09;;;;;;;17.85;13.98;;;13.30;99.90;;;13.69;94.24;99917.63;4896045;29;20063;-64
2024/03/03 09:06:41;;;;;;;15.77;13.27;;;13.30;99.90;;;13.85;94.03;99922.41;4895614;29;20100;-64
2024/03/03 09:09:10;;;;;;;15.88;13.07;;;13.50;99.90;;;13.72;92.63;99906.91;4895802;29;20400;-65
2024/03/03 09:11:40;;;;;;;14.60;12.57;;;13.50;99.90;;;13.87;91.07;99925.00;4894699;29;20049;-65
2024/03/03 09:14:08;;;;;;;15.77;11.93;;;13.50;99.90;;;13.76;89.04;99936.03;4895724;29;20048;-64
2024/03/03 09:16:36;;;;;;;13.48;11.57;;;13.50;99.90;;;13.70;87.94;99916.72;4895732;29;20052;-66
2024/03/03 09:19:05;;;;;;;13.05;11.65;;;13.40;99.90;;;13.65;86.70;99919.53;4895735;29;20048;-65
2024/03/03 09:21:34;;;;;;;13.25;11.85;;;13.40;99.90;;;13.32;87.05;99924.13;4895729;29;20050;-64
2024/03/03 09:24:03;;;;;;;13.35;11.52;;;13.10;99.90;;;13.12;87.50;99931.81;4895861;29;20439;-65
2024/03/03 09:26:35;;;;;;;15.38;11.65;;;12.90;99.90;;;12.71;88.75;99929.47;4895572;29;20127;-65
2024/03/03 09:29:05;;;;;;;14.73;11.45;;;12.40;99.90;;;13.07;89.46;99916.94;4894341;29;20041;-64
2024/03/03 09:31:34;;;;;;;13.83;11.83;;;12.70;99.90;;;13.39;89.33;99924.81;4897421;29;20059;-65
2024/03/03 09:34:02;;;;;;;14.68;11.45;;;13.00;99.90;;;13.54;89.39;99917.22;4899827;29;20079;-63
2024/03/03 09:36:30;;;;;;;13.18;11.73;;;13.20;99.90;;;13.74;88.33;99911.28;4899310;29;20068;-65
2024/03/03 09:38:59;;;;;;;13.73;11.15;;;13.40;99.90;;;13.88;87.73;99909.00;4899473;29;20052;-64
2024/03/03 09:41:27;;;;;;;13.13;11.15;;;13.60;99.90;;;13.79;86.28;99897.81;4899226;29;20052;-62
2024/03/03 09:44:03;;;;;;;15.68;11.30;;;13.60;99.90;;;13.93;86.03;99901.78;4897912;29;20561;-64
2024/03/03 09:46:37;;;;;;;12.80;11.25;;;13.70;99.90;;;13.96;85.29;99901.66;4899459;29;20049;-62
2024/03/03 09:49:10;;;;;;;13.77;11.82;;;13.70;99.90;;;13.84;84.72;99902.06;4899170;29;20079;-65
2024/03/03 09:51:42;;;;;;;14.65;12.40;;;13.70;99.90;;;13.96;84.90;99906.09;4899290;29;20052;-65
2024/03/03 09:54:12;;;;;;;13.07;11.75;;;13.70;99.90;;;13.38;84.69;99905.34;4899205;29;20673;-62
2024/03/03 09:56:44;;;;;;;12.82;11.48;;;13.30;99.90;;;13.29;85.32;99908.28;4897932;29;20053;-64
2024/03/03 09:59:15;;;;;;;16.45;11.90;;;13.10;99.90;;;13.29;85.76;99905.63;4899146;29;20037;-64
2024/03/03 10:01:51;;;;;;;12.68;11.25;;;13.10;99.90;;;13.50;86.33;99912.03;4899026;29;20063;-63
2024/03/03 10:04:22;;;;;;;14.52;11.00;;;13.20;99.90;;;13.53;85.65;99912.81;4899011;29;20572;-63
2024/03/03 10:06:54;;;;;;;13.95;11.25;;;13.20;99.90;;;13.59;85.56;99923.25;4899131;29;20498;-63
2024/03/03 10:09:26;;;;;;;13.18;11.50;;;13.30;99.90;;;13.38;85.61;99921.28;4899037;29;20028;-63
2024/03/03 10:11:58;;;;;;;13.10;10.98;;;13.10;99.90;;;13.09;86.89;99926.59;4899033;29;20521;-64
2024/03/03 10:14:28;;;;;;;13.73;10.68;;;12.90;99.90;;;12.78;88.14;99928.38;4898833;29;20056;-63
2024/03/03 10:16:59;;;;;;;13.60;10.75;;;12.50;99.90;;;12.53;89.80;99936.16;4898707;29;20085;-65
2024/03/03 10:19:29;;;;;;;12.45;11.13;;;12.30;99.90;;;12.35;91.18;99943.72;4898872;29;20442;-64